createdAt,value
2018-12-12T06:22:37.327Z,950.63
2018-12-12T06:23:34.563Z,950.61
2018-12-12T06:24:31.937Z,950.64
2018-12-12T06:25:31.919Z,950.63
2018-12-12T06:26:37.254Z,950.67
2018-12-12T06:27:31.887Z,950.67
2018-12-12T06:28:31.872Z,950.66
2018-12-12T06:29:31.850Z,950.61
2018-12-12T06:30:31.831Z,950.65
2018-12-12T06:31:31.825Z,950.66
2018-12-12T06:32:31.809Z,950.63
2018-12-12T06:33:31.799Z,950.64
2018-12-12T06:34:31.783Z,950.62
2018-12-12T06:35:31.760Z,950.64
2018-12-12T06:36:31.757Z,950.67
2018-12-12T06:37:31.752Z,950.65
2018-12-12T06:38:31.730Z,950.63
2018-12-12T06:39:31.715Z,950.65
2018-12-12T06:40:31.697Z,950.64
2018-12-12T06:41:31.682Z,950.63
2018-12-12T06:42:31.670Z,950.60
2018-12-12T06:43:31.651Z,950.67
2018-12-12T06:44:31.626Z,950.68
2018-12-12T06:45:31.623Z,950.66
2018-12-12T06:46:31.675Z,950.67
2018-12-12T06:47:31.594Z,950.67
2018-12-12T06:48:31.580Z,950.66
2018-12-12T06:49:31.565Z,950.69
2018-12-12T06:50:31.552Z,950.67
2018-12-12T06:51:31.540Z,950.64
2018-12-12T06:52:31.523Z,950.64
2018-12-12T06:53:31.521Z,950.67
2018-12-12T06:54:31.495Z,950.69
2018-12-12T06:55:31.478Z,950.67
2018-12-12T06:56:31.470Z,950.66
2018-12-12T06:57:31.452Z,950.59
2018-12-12T06:58:31.437Z,950.67
2018-12-12T06:59:31.426Z,950.61
2018-12-12T07:00:31.408Z,950.63
2018-12-12T07:01:31.401Z,950.67
2018-12-12T07:02:31.381Z,950.62
2018-12-12T07:03:31.366Z,950.58
2018-12-12T07:04:31.345Z,950.60
2018-12-12T07:05:31.338Z,950.58
2018-12-12T07:06:31.332Z,950.57
2018-12-12T07:07:31.344Z,950.58
2018-12-12T07:08:31.300Z,950.56
2018-12-12T07:09:31.283Z,950.56
2018-12-12T07:10:31.269Z,950.53
2018-12-12T07:11:31.255Z,950.56
2018-12-12T07:12:31.246Z,950.53
2018-12-12T07:13:35.702Z,950.55
2018-12-12T07:14:31.212Z,950.55
2018-12-12T07:15:31.197Z,950.54
2018-12-12T07:16:31.190Z,950.58
2018-12-12T07:17:31.173Z,950.56
2018-12-12T07:18:31.200Z,950.59
2018-12-12T07:19:31.141Z,950.57
2018-12-12T07:20:31.127Z,950.58
2018-12-12T07:21:31.114Z,950.56
2018-12-12T07:22:31.101Z,950.55
2018-12-12T07:23:31.088Z,950.58
2018-12-12T07:24:31.067Z,950.63
2018-12-12T07:25:31.060Z,950.61
2018-12-12T07:26:31.046Z,950.65
2018-12-12T07:27:31.023Z,950.65
2018-12-12T07:28:31.023Z,950.65
2018-12-12T07:29:31.005Z,950.63
2018-12-12T07:30:30.998Z,950.69
2018-12-12T07:31:30.975Z,950.66
2018-12-12T07:32:30.967Z,950.60
2018-12-12T07:33:30.947Z,950.61
2018-12-12T07:34:30.934Z,950.60
2018-12-12T07:35:32.627Z,950.54
2018-12-12T07:36:32.584Z,950.56
2018-12-12T07:37:30.898Z,950.56
2018-12-12T07:38:30.884Z,950.56
2018-12-12T07:39:30.868Z,950.55
2018-12-12T07:40:30.852Z,950.57
2018-12-12T07:41:30.839Z,950.60
2018-12-12T07:42:30.828Z,950.57
2018-12-12T07:43:30.812Z,950.49
2018-12-12T07:44:30.803Z,950.52
2018-12-12T07:45:30.789Z,950.48
2018-12-12T07:46:30.777Z,950.47
2018-12-12T07:47:30.760Z,950.54
2018-12-12T07:48:30.743Z,950.51
2018-12-12T07:49:30.735Z,950.50
2018-12-12T07:50:30.719Z,950.50
2018-12-12T07:51:30.715Z,950.48
2018-12-12T07:52:30.690Z,950.47
2018-12-12T07:53:30.678Z,950.45
2018-12-12T07:54:30.668Z,950.48
2018-12-12T07:55:30.651Z,950.48
2018-12-12T07:56:30.641Z,950.50
2018-12-12T07:57:30.627Z,950.49
2018-12-12T07:58:30.613Z,950.48
2018-12-12T07:59:30.600Z,950.47
2018-12-12T08:00:30.585Z,950.46
2018-12-12T08:01:30.581Z,950.45
2018-12-12T08:02:30.564Z,950.47
2018-12-12T08:03:30.552Z,950.44
2018-12-12T08:04:30.573Z,950.45
2018-12-12T08:05:30.522Z,950.45
2018-12-12T08:06:30.513Z,950.43
2018-12-12T08:07:30.503Z,950.41
2018-12-12T08:08:30.489Z,950.42
2018-12-12T08:09:30.477Z,950.44
2018-12-12T08:10:30.459Z,950.40
2018-12-12T08:11:30.449Z,950.45
2018-12-12T08:12:30.445Z,950.49
2018-12-12T08:13:30.423Z,950.48
2018-12-12T08:14:30.412Z,950.48
2018-12-12T08:15:30.399Z,950.45
2018-12-12T08:16:30.386Z,950.47
2018-12-12T08:17:30.373Z,950.45
2018-12-12T08:18:30.361Z,950.44
2018-12-12T08:19:30.349Z,950.46
2018-12-12T08:20:30.338Z,950.50
2018-12-12T08:21:30.321Z,950.52
2018-12-12T08:22:30.312Z,950.53
2018-12-12T08:23:30.302Z,950.51
2018-12-12T08:24:30.290Z,950.52
2018-12-12T08:25:30.277Z,950.54
2018-12-12T08:26:30.989Z,950.50
2018-12-12T08:27:32.569Z,950.57
2018-12-12T08:28:30.243Z,950.58
2018-12-12T08:29:30.229Z,950.59
2018-12-12T08:30:30.220Z,950.59
2018-12-12T08:31:30.206Z,950.53
2018-12-12T08:32:30.201Z,950.56
2018-12-12T08:33:30.184Z,950.58
2018-12-12T08:34:30.172Z,950.58
2018-12-12T08:35:30.158Z,950.56
2018-12-12T08:36:30.145Z,950.61
2018-12-12T08:37:30.137Z,950.62
2018-12-12T08:38:30.123Z,950.62
2018-12-12T08:39:30.112Z,950.62
2018-12-12T08:40:30.103Z,950.58
2018-12-12T08:41:30.088Z,950.58
2018-12-12T08:42:30.084Z,950.61
2018-12-12T08:43:30.070Z,950.59
2018-12-12T08:44:30.054Z,950.63
2018-12-12T08:45:30.043Z,950.62
2018-12-12T08:46:30.031Z,950.60
2018-12-12T08:47:30.024Z,950.64
2018-12-12T08:48:30.011Z,950.57
2018-12-12T08:49:30.014Z,950.59
2018-12-12T08:50:29.998Z,950.63
2018-12-12T08:51:30.018Z,950.66
2018-12-12T08:52:29.970Z,950.65
2018-12-12T08:53:29.955Z,950.65
2018-12-12T08:54:29.950Z,950.69
2018-12-12T08:55:29.935Z,950.70
2018-12-12T08:56:29.928Z,950.70
2018-12-12T08:57:29.921Z,950.68
2018-12-12T08:58:29.913Z,950.70
2018-12-12T08:59:29.902Z,950.71
2018-12-12T09:00:29.890Z,950.68
2018-12-12T09:01:29.881Z,950.71
2018-12-12T09:02:29.863Z,950.74
2018-12-12T09:03:29.864Z,950.74
2018-12-12T09:04:29.852Z,950.74
2018-12-12T09:05:29.843Z,950.74
2018-12-12T09:06:29.891Z,950.71
2018-12-12T09:07:29.825Z,950.69
2018-12-12T09:08:29.813Z,950.69
2018-12-12T09:09:29.808Z,950.68
2018-12-12T09:10:29.799Z,950.68
2018-12-12T09:11:29.786Z,950.70
2018-12-12T09:12:29.780Z,950.67
2018-12-12T09:13:29.780Z,950.64
2018-12-12T09:14:29.756Z,950.65
2018-12-12T09:15:29.744Z,950.65
2018-12-12T09:16:29.741Z,950.63
2018-12-12T09:17:29.735Z,950.65
2018-12-12T09:18:29.729Z,950.67
2018-12-12T09:19:29.752Z,950.70
2018-12-12T09:20:29.722Z,950.69
2018-12-12T09:21:29.697Z,950.73
2018-12-12T09:22:31.771Z,950.72
2018-12-12T09:23:29.683Z,950.74
2018-12-12T09:24:29.675Z,950.72
2018-12-12T09:25:29.666Z,950.72
2018-12-12T09:26:29.658Z,950.74
2018-12-12T09:27:29.649Z,950.75
2018-12-12T09:28:29.643Z,950.75
2018-12-12T09:29:29.629Z,950.74
2018-12-12T09:30:29.622Z,950.70
2018-12-12T09:31:29.613Z,950.72
2018-12-12T09:32:29.605Z,950.73
2018-12-12T09:33:29.598Z,950.72
2018-12-12T09:34:29.588Z,950.70
2018-12-12T09:35:29.575Z,950.68
2018-12-12T09:36:29.573Z,950.65
2018-12-12T09:37:29.566Z,950.64
2018-12-12T09:38:29.560Z,950.61
2018-12-12T09:39:29.552Z,950.61
2018-12-12T09:40:29.527Z,950.60
2018-12-12T09:41:29.531Z,950.58
2018-12-12T09:42:29.524Z,950.58
2018-12-12T09:43:29.510Z,950.58
2018-12-12T09:44:29.503Z,950.58
2018-12-12T09:45:29.497Z,950.59
2018-12-12T09:46:29.491Z,950.61
2018-12-12T09:47:29.477Z,950.57
2018-12-12T09:48:29.468Z,950.56
2018-12-12T09:49:29.460Z,950.54
2018-12-12T09:50:29.452Z,950.55
2018-12-12T09:51:29.442Z,950.57
2018-12-12T09:52:29.435Z,950.50
2018-12-12T09:53:29.426Z,950.46
2018-12-12T09:54:29.412Z,950.47
2018-12-12T09:55:29.435Z,950.48
2018-12-12T09:56:29.401Z,950.48
2018-12-12T09:57:29.391Z,950.47
2018-12-12T09:58:29.384Z,950.44
2018-12-12T09:59:29.373Z,950.45
2018-12-12T10:00:29.362Z,950.42
2018-12-12T10:01:29.352Z,950.41
2018-12-12T10:02:29.359Z,950.43
2018-12-12T10:03:31.351Z,950.38
2018-12-12T10:04:29.328Z,950.38
2018-12-12T10:05:29.319Z,950.44
2018-12-12T10:06:29.314Z,950.39
2018-12-12T10:07:29.303Z,950.47
2018-12-12T10:08:29.292Z,950.42
2018-12-12T10:09:29.287Z,950.40
2018-12-12T10:10:29.275Z,950.39
2018-12-12T10:11:29.269Z,950.36
2018-12-12T10:12:29.259Z,950.36
2018-12-12T10:13:29.250Z,950.34
2018-12-12T10:14:29.241Z,950.35
2018-12-12T10:15:29.232Z,950.33
2018-12-12T10:16:29.223Z,950.36
2018-12-12T10:17:29.214Z,950.30
2018-12-12T10:18:29.205Z,950.30
2018-12-12T10:19:29.200Z,950.30
2018-12-12T10:20:29.189Z,950.31
2018-12-12T10:21:29.181Z,950.26
2018-12-12T10:22:29.178Z,950.26
2018-12-12T10:23:29.173Z,950.23
2018-12-12T10:24:29.156Z,950.23
2018-12-12T10:25:29.150Z,950.25
2018-12-12T10:26:29.145Z,950.23
2018-12-12T10:27:29.134Z,950.24
2018-12-12T10:28:29.151Z,950.17
2018-12-12T10:29:29.116Z,950.21
2018-12-12T10:30:29.120Z,950.20
2018-12-12T10:31:29.135Z,950.25
2018-12-12T10:32:29.100Z,950.23
2018-12-12T10:33:29.092Z,950.23
2018-12-12T10:34:29.080Z,950.19
2018-12-12T10:35:29.081Z,950.20
2018-12-12T10:36:29.075Z,950.14
2018-12-12T10:37:29.072Z,950.15
2018-12-12T10:38:29.067Z,950.13
2018-12-12T10:39:29.066Z,950.12
2018-12-12T10:40:29.055Z,950.11
2018-12-12T10:41:29.050Z,950.07
2018-12-12T10:42:29.053Z,950.07
2018-12-12T10:43:29.042Z,950.06
2018-12-12T10:44:29.047Z,950.05
2018-12-12T10:45:29.033Z,950.04
2018-12-12T10:46:29.031Z,949.99
2018-12-12T10:47:29.027Z,949.99
2018-12-12T10:48:29.019Z,949.96
2018-12-12T10:49:29.020Z,949.97
2018-12-12T10:50:29.015Z,949.95
2018-12-12T10:51:29.013Z,949.96
2018-12-12T10:52:29.005Z,949.97
2018-12-12T10:53:29.002Z,949.96
2018-12-12T10:54:29.023Z,950.01
2018-12-12T10:55:28.996Z,950.00
2018-12-12T10:56:28.995Z,949.95
2018-12-12T10:57:28.989Z,949.96
2018-12-12T10:58:28.985Z,949.96
2018-12-12T10:59:28.980Z,949.98
2018-12-12T11:00:28.977Z,949.92
2018-12-12T11:01:28.974Z,949.92
2018-12-12T11:02:28.968Z,949.99
2018-12-12T11:03:28.967Z,949.94
2018-12-12T11:04:28.961Z,949.95
2018-12-12T11:05:28.955Z,949.94
2018-12-12T11:06:28.958Z,949.88
2018-12-12T11:07:30.530Z,949.89
2018-12-12T11:08:28.949Z,949.86
2018-12-12T11:09:28.951Z,949.81
2018-12-12T11:10:28.996Z,949.78
2018-12-12T11:11:28.936Z,949.78
2018-12-12T11:12:28.935Z,949.77
2018-12-12T11:13:28.927Z,949.78
2018-12-12T11:14:28.923Z,949.76
2018-12-12T11:15:28.917Z,949.76
2018-12-12T11:16:28.917Z,949.80
2018-12-12T11:17:28.907Z,949.79
2018-12-12T11:18:28.904Z,949.75
2018-12-12T11:19:28.910Z,949.70
2018-12-12T11:20:28.894Z,949.73
2018-12-12T11:21:28.902Z,949.70
2018-12-12T11:22:28.878Z,949.68
2018-12-12T11:23:28.883Z,949.61
2018-12-12T11:24:28.877Z,949.62
2018-12-12T11:25:28.865Z,949.64
2018-12-12T11:26:28.875Z,949.71
2018-12-12T11:27:28.855Z,949.64
2018-12-12T11:28:28.849Z,949.64
2018-12-12T11:29:28.835Z,949.60
2018-12-12T11:30:28.831Z,949.60
2018-12-12T11:31:28.830Z,949.65
2018-12-12T11:32:28.824Z,949.67
2018-12-12T11:33:28.819Z,949.63
2018-12-12T11:34:28.820Z,949.65
2018-12-12T11:35:28.815Z,949.67
2018-12-12T11:36:28.801Z,949.61
2018-12-12T11:37:28.796Z,949.56
2018-12-12T11:38:28.792Z,949.54
2018-12-12T11:39:28.784Z,949.52
2018-12-12T11:40:28.779Z,949.53
2018-12-12T11:41:28.771Z,949.52
2018-12-12T11:42:28.767Z,949.49
2018-12-12T11:43:28.762Z,949.53
2018-12-12T11:44:28.754Z,949.51
2018-12-12T11:45:28.770Z,949.49
2018-12-12T11:46:28.745Z,949.47
2018-12-12T11:47:28.735Z,949.45
2018-12-12T11:48:28.729Z,949.45
2018-12-12T11:49:28.730Z,949.41
2018-12-12T11:50:28.722Z,949.43
2018-12-12T11:51:28.716Z,949.42
2018-12-12T11:52:28.712Z,949.44
2018-12-12T11:53:28.712Z,949.40
2018-12-12T11:54:28.701Z,949.33
2018-12-12T11:55:28.690Z,949.32
2018-12-12T11:56:28.691Z,949.34
2018-12-12T11:57:28.688Z,949.33
2018-12-12T11:58:28.684Z,949.32
2018-12-12T11:59:28.674Z,949.31
2018-12-12T12:00:28.715Z,949.28
2018-12-12T12:01:30.587Z,949.28
2018-12-12T12:02:28.662Z,949.25
2018-12-12T12:03:28.656Z,949.25
2018-12-12T12:04:28.654Z,949.25
2018-12-12T12:05:28.649Z,949.25
2018-12-12T12:06:28.643Z,949.23
2018-12-12T12:07:28.638Z,949.22
2018-12-12T12:08:28.628Z,949.17
2018-12-12T12:09:28.631Z,949.23
2018-12-12T12:10:28.683Z,949.16
2018-12-12T12:11:28.614Z,949.14
2018-12-12T12:12:28.613Z,949.13
2018-12-12T12:13:28.602Z,949.12
2018-12-12T12:14:28.611Z,949.13
2018-12-12T12:15:28.593Z,949.14
2018-12-12T12:16:28.587Z,949.17
2018-12-12T12:17:28.587Z,949.17
2018-12-12T12:18:28.578Z,949.14
2018-12-12T12:19:28.577Z,949.13
2018-12-12T12:20:28.564Z,949.12
2018-12-12T12:21:28.561Z,949.08
2018-12-12T12:22:28.560Z,949.10
2018-12-12T12:23:28.549Z,949.04
2018-12-12T12:24:28.538Z,949.03
2018-12-12T12:25:28.536Z,949.08
2018-12-12T12:26:28.525Z,949.10
2018-12-12T12:27:28.519Z,949.04
2018-12-12T12:28:28.565Z,949.04
2018-12-12T12:29:28.502Z,949.01
2018-12-12T12:30:28.495Z,948.99
2018-12-12T12:31:28.486Z,948.97
2018-12-12T12:32:28.479Z,949.04
2018-12-12T12:33:28.474Z,949.02
2018-12-12T12:34:28.465Z,948.99
2018-12-12T12:35:28.450Z,948.96
2018-12-12T12:36:28.450Z,948.93
2018-12-12T12:37:28.445Z,948.91
2018-12-12T12:38:28.435Z,948.89
2018-12-12T12:39:28.429Z,948.91
2018-12-12T12:40:28.435Z,948.89
2018-12-12T12:41:28.416Z,948.86
2018-12-12T12:42:28.411Z,948.87
2018-12-12T12:43:28.395Z,948.84
2018-12-12T12:44:28.414Z,948.84
2018-12-12T12:45:29.205Z,948.87
2018-12-12T12:46:28.373Z,948.81
2018-12-12T12:47:28.363Z,948.78
2018-12-12T12:48:28.355Z,948.73
2018-12-12T12:49:28.343Z,948.67
2018-12-12T12:50:28.335Z,948.70
2018-12-12T12:51:28.328Z,948.67
2018-12-12T12:52:28.317Z,948.65
2018-12-12T12:53:28.316Z,948.62
2018-12-12T12:54:28.299Z,948.61
2018-12-12T12:55:28.287Z,948.61
2018-12-12T12:56:28.278Z,948.59
2018-12-12T12:57:28.276Z,948.61
2018-12-12T12:58:28.264Z,948.65
2018-12-12T12:59:28.252Z,948.62
2018-12-12T13:00:28.242Z,948.61
2018-12-12T13:01:28.225Z,948.63
2018-12-12T13:02:28.224Z,948.64
2018-12-12T13:03:28.210Z,948.62
2018-12-12T13:04:28.204Z,948.63
2018-12-12T13:05:28.197Z,948.61
2018-12-12T13:06:28.187Z,948.61
2018-12-12T13:07:28.212Z,948.57
2018-12-12T13:08:28.197Z,948.56
2018-12-12T13:09:28.158Z,948.56
2018-12-12T13:10:28.155Z,948.56
2018-12-12T13:11:30.971Z,948.56
2018-12-12T13:12:28.133Z,948.51
2018-12-12T13:13:28.247Z,948.52
2018-12-12T13:14:28.115Z,948.58
2018-12-12T13:15:28.101Z,948.56
2018-12-12T13:16:28.094Z,948.53
2018-12-12T13:17:28.079Z,948.56
2018-12-12T13:18:28.069Z,948.55
2018-12-12T13:19:28.061Z,948.53
2018-12-12T13:20:28.048Z,948.52
2018-12-12T13:21:28.039Z,948.50
2018-12-12T13:22:28.028Z,948.51
2018-12-12T13:23:28.023Z,948.51
2018-12-12T13:24:28.010Z,948.49
2018-12-12T13:25:27.999Z,948.51
2018-12-12T13:26:27.991Z,948.48
2018-12-12T13:27:27.977Z,948.47
2018-12-12T13:28:27.969Z,948.50
2018-12-12T13:29:27.960Z,948.43
2018-12-12T13:30:27.950Z,948.47
2018-12-12T13:31:27.940Z,948.45
2018-12-12T13:32:27.932Z,948.50
2018-12-12T13:33:27.919Z,948.39
2018-12-12T13:34:27.908Z,948.48
2018-12-12T13:35:27.900Z,948.41
2018-12-12T13:36:27.939Z,948.40
2018-12-12T13:37:27.887Z,948.38
2018-12-12T13:38:27.871Z,948.38
2018-12-12T13:39:27.863Z,948.38
2018-12-12T13:40:27.871Z,948.36
2018-12-12T13:41:27.844Z,948.33
2018-12-12T13:42:27.831Z,948.32
2018-12-12T13:43:27.827Z,948.31
2018-12-12T13:44:27.816Z,948.32
2018-12-12T13:45:27.806Z,948.30
2018-12-12T13:46:27.792Z,948.31
2018-12-12T13:47:27.778Z,948.29
2018-12-12T13:48:27.771Z,948.31
2018-12-12T13:49:27.762Z,948.28
2018-12-12T13:50:27.756Z,948.30
2018-12-12T13:51:27.745Z,948.23
2018-12-12T13:52:27.734Z,948.27
2018-12-12T13:53:27.734Z,948.26
2018-12-12T13:54:27.715Z,948.23
2018-12-12T13:55:27.703Z,948.27
2018-12-12T13:56:27.696Z,948.23
2018-12-12T13:57:27.759Z,948.23
2018-12-12T13:58:27.676Z,948.19
2018-12-12T13:59:27.669Z,948.22
2018-12-12T14:00:27.660Z,948.20
2018-12-12T14:01:30.113Z,948.22
2018-12-12T14:02:27.642Z,948.22
2018-12-12T14:03:27.630Z,948.20
2018-12-12T14:04:27.617Z,948.20
2018-12-12T14:05:27.614Z,948.15
2018-12-12T14:06:27.610Z,948.13
2018-12-12T14:07:27.598Z,948.11
2018-12-12T14:08:27.583Z,948.13
2018-12-12T14:09:27.580Z,948.09
2018-12-12T14:10:27.564Z,948.13
2018-12-12T14:11:27.554Z,948.15
2018-12-12T14:12:27.548Z,948.13
2018-12-12T14:13:27.534Z,948.15
2018-12-12T14:14:27.525Z,948.15
2018-12-12T14:15:27.518Z,948.14
2018-12-12T14:16:27.503Z,948.15
2018-12-12T14:17:27.499Z,948.19
2018-12-12T14:18:27.504Z,948.18
2018-12-12T14:19:27.473Z,948.21
2018-12-12T14:20:27.468Z,948.19
2018-12-12T14:21:27.458Z,948.15
2018-12-12T14:22:27.445Z,948.16
2018-12-12T14:23:27.433Z,948.14
2018-12-12T14:24:27.426Z,948.19
2018-12-12T14:25:27.416Z,948.17
2018-12-12T14:26:27.405Z,948.16
2018-12-12T14:27:27.395Z,948.19
2018-12-12T14:28:27.384Z,948.16
2018-12-12T14:29:27.372Z,948.14
2018-12-12T14:30:27.361Z,948.16
2018-12-12T14:31:27.356Z,948.12
2018-12-12T14:32:27.342Z,948.18
2018-12-12T14:33:27.338Z,948.13
2018-12-12T14:34:29.373Z,948.12
2018-12-12T14:35:27.317Z,948.12
2018-12-12T14:36:27.302Z,948.10
2018-12-12T14:37:27.295Z,948.14
2018-12-12T14:38:27.286Z,948.14
2018-12-12T14:39:27.276Z,948.13
2018-12-12T14:40:27.265Z,948.11
2018-12-12T14:41:27.249Z,948.15
2018-12-12T14:42:27.246Z,948.17
2018-12-12T14:43:27.234Z,948.16
2018-12-12T14:44:27.224Z,948.16
2018-12-12T14:45:27.213Z,948.19
2018-12-12T14:46:27.192Z,948.16
2018-12-12T14:47:27.192Z,948.14
2018-12-12T14:48:30.285Z,948.14
2018-12-12T14:49:27.171Z,948.16
2018-12-12T14:50:27.165Z,948.10
2018-12-12T14:51:27.157Z,948.08
2018-12-12T14:52:27.140Z,948.08
2018-12-12T14:53:27.126Z,948.05
2018-12-12T14:54:27.157Z,948.07
2018-12-12T14:55:27.109Z,948.02
2018-12-12T14:56:27.100Z,948.06
2018-12-12T14:57:29.831Z,948.07
2018-12-12T14:58:27.077Z,948.03
2018-12-12T14:59:27.062Z,948.05
2018-12-12T15:00:27.053Z,948.00
2018-12-12T15:01:27.045Z,948.05
2018-12-12T15:02:27.055Z,948.02
2018-12-12T15:03:27.019Z,948.05
2018-12-12T15:04:27.001Z,948.04
2018-12-12T15:05:26.999Z,948.03
2018-12-12T15:06:26.986Z,948.00
2018-12-12T15:07:26.978Z,948.02
2018-12-12T15:08:26.967Z,948.06
2018-12-12T15:09:26.958Z,948.07
2018-12-12T15:10:26.943Z,948.06
2018-12-12T15:11:26.933Z,948.09
2018-12-12T15:12:26.937Z,948.09
2018-12-12T15:13:26.911Z,948.06
2018-12-12T15:14:26.898Z,948.05
2018-12-12T15:15:26.887Z,948.07
2018-12-12T15:16:26.873Z,948.07
2018-12-12T15:17:26.865Z,948.06
2018-12-12T15:18:26.856Z,948.02
2018-12-12T15:19:26.840Z,948.07
2018-12-12T15:20:26.831Z,948.02
2018-12-12T15:21:26.820Z,948.08
2018-12-12T15:22:26.806Z,948.06
2018-12-12T15:23:26.793Z,947.99
2018-12-12T15:24:26.784Z,948.02
2018-12-12T15:25:26.779Z,947.97
2018-12-12T15:26:26.765Z,947.96
2018-12-12T15:27:26.744Z,947.96
2018-12-12T15:28:26.740Z,948.00
2018-12-12T15:29:26.732Z,947.98
2018-12-12T15:30:26.718Z,948.01
2018-12-12T15:31:26.705Z,947.99
2018-12-12T15:32:26.695Z,947.88
2018-12-12T15:33:26.681Z,947.89
2018-12-12T15:34:26.665Z,947.88
2018-12-12T15:35:26.661Z,947.88
2018-12-12T15:36:26.646Z,947.95
2018-12-12T15:37:26.637Z,947.91
2018-12-12T15:38:26.620Z,947.92
2018-12-12T15:39:26.612Z,947.94
2018-12-12T15:40:26.599Z,947.90
2018-12-12T15:41:26.591Z,947.91
2018-12-12T15:42:26.577Z,947.91
2018-12-12T15:43:26.568Z,947.92
2018-12-12T15:44:26.560Z,947.95
2018-12-12T15:45:26.541Z,947.90
2018-12-12T15:46:26.531Z,947.88
2018-12-12T15:47:26.522Z,947.91
2018-12-12T15:48:26.506Z,947.90
2018-12-12T15:49:26.498Z,947.88
2018-12-12T15:50:26.484Z,947.87
2018-12-12T15:51:26.475Z,947.90
2018-12-12T15:52:26.460Z,947.88
2018-12-12T15:53:26.471Z,947.84
2018-12-12T15:54:26.448Z,947.81
2018-12-12T15:55:27.062Z,947.88
2018-12-12T15:56:26.413Z,947.83
2018-12-12T15:57:26.408Z,947.79
2018-12-12T15:58:26.404Z,947.84
2018-12-12T15:59:26.383Z,947.85
2018-12-12T16:00:26.368Z,947.87
2018-12-12T16:01:26.353Z,947.90
2018-12-12T16:02:26.343Z,947.87
2018-12-12T16:03:26.337Z,947.86
2018-12-12T16:04:26.327Z,947.83
2018-12-12T16:05:27.066Z,947.83
2018-12-12T16:06:26.291Z,947.80
2018-12-12T16:07:26.287Z,947.81
2018-12-12T16:08:26.280Z,947.83
2018-12-12T16:09:26.263Z,947.84
2018-12-12T16:10:26.249Z,947.83
2018-12-12T16:11:26.232Z,947.82
2018-12-12T16:12:26.227Z,947.80
2018-12-12T16:13:26.215Z,947.88
2018-12-12T16:14:26.199Z,947.82
2018-12-12T16:15:26.199Z,947.86
2018-12-12T16:16:26.186Z,947.84
2018-12-12T16:17:26.169Z,947.82
2018-12-12T16:18:26.156Z,947.82
2018-12-12T16:19:26.165Z,947.80
2018-12-12T16:20:26.133Z,947.87
2018-12-12T16:21:26.119Z,947.87
2018-12-12T16:22:26.115Z,947.87
2018-12-12T16:23:26.100Z,947.87
2018-12-12T16:24:26.121Z,947.86
2018-12-12T16:25:26.077Z,947.86
2018-12-12T16:26:26.064Z,947.86
2018-12-12T16:27:26.051Z,947.90
2018-12-12T16:28:26.033Z,947.83
2018-12-12T16:29:26.024Z,947.85
2018-12-12T16:30:26.011Z,947.85
2018-12-12T16:31:25.998Z,947.85
2018-12-12T16:32:26.004Z,947.85
2018-12-12T16:33:25.970Z,947.87
2018-12-12T16:34:25.960Z,947.88
2018-12-12T16:35:25.954Z,947.87
2018-12-12T16:36:25.946Z,947.81
2018-12-12T16:37:25.921Z,947.81
2018-12-12T16:38:25.914Z,947.80
2018-12-12T16:39:25.914Z,947.81
2018-12-12T16:40:25.885Z,947.85
2018-12-12T16:41:25.886Z,947.79
2018-12-12T16:42:25.867Z,947.85
2018-12-12T16:43:25.857Z,947.84
2018-12-12T16:44:25.863Z,947.79
2018-12-12T16:45:25.835Z,947.83
2018-12-12T16:46:25.828Z,947.80
2018-12-12T16:47:25.811Z,947.84
2018-12-12T16:48:25.800Z,947.83
2018-12-12T16:49:25.785Z,947.84
2018-12-12T16:50:25.778Z,947.77
2018-12-12T16:51:25.761Z,947.78
2018-12-12T16:52:25.748Z,947.74
2018-12-12T16:53:25.734Z,947.79
2018-12-12T16:55:25.708Z,947.77
2018-12-12T16:56:25.698Z,947.81
2018-12-12T16:57:25.687Z,947.74
2018-12-12T16:58:25.677Z,947.72
2018-12-12T16:59:25.661Z,947.72
2018-12-12T17:00:25.649Z,947.72
2018-12-12T17:01:46.645Z,947.73
2018-12-12T17:02:25.624Z,947.70
2018-12-12T17:03:25.609Z,947.70
2018-12-12T17:04:25.598Z,947.70
2018-12-12T17:05:25.590Z,947.71
2018-12-12T17:06:25.578Z,947.74
2018-12-12T17:07:46.562Z,947.77
2018-12-12T17:08:25.559Z,947.75
2018-12-12T17:09:25.552Z,947.69
2018-12-12T17:10:25.531Z,947.75
2018-12-12T17:11:25.515Z,947.74
2018-12-12T17:12:25.502Z,947.76
2018-12-12T17:13:46.501Z,947.75
2018-12-12T17:14:25.481Z,947.71
2018-12-12T17:15:25.465Z,947.73
2018-12-12T17:16:25.449Z,947.69
2018-12-12T17:17:25.441Z,947.72
2018-12-12T17:18:25.442Z,947.70
2018-12-12T17:19:46.443Z,947.71
2018-12-12T17:20:25.410Z,947.64
2018-12-12T17:21:25.394Z,947.68
2018-12-12T17:22:25.384Z,947.68
2018-12-12T17:23:25.365Z,947.65
2018-12-12T17:24:25.351Z,947.65
2018-12-12T17:25:46.353Z,947.65
2018-12-12T17:26:25.332Z,947.66
2018-12-12T17:27:25.321Z,947.68
2018-12-12T17:28:25.345Z,947.64
2018-12-12T17:29:25.315Z,947.63
2018-12-12T17:30:26.104Z,947.59
2018-12-12T17:31:46.315Z,947.63
2018-12-12T17:32:25.340Z,947.62
2018-12-12T17:33:25.248Z,947.64
2018-12-12T17:34:25.237Z,947.61
2018-12-12T17:35:25.276Z,947.63
2018-12-12T17:36:25.206Z,947.60
2018-12-12T17:37:46.202Z,947.58
2018-12-12T17:38:25.191Z,947.61
2018-12-12T17:39:26.101Z,947.59
2018-12-12T17:40:25.170Z,947.57
2018-12-12T17:41:25.144Z,947.56
2018-12-12T17:42:25.125Z,947.56
2018-12-12T17:43:46.129Z,947.54
2018-12-12T17:44:25.102Z,947.54
2018-12-12T17:45:25.098Z,947.52
2018-12-12T17:46:25.116Z,947.53
2018-12-12T17:47:25.084Z,947.51
2018-12-12T17:48:25.055Z,947.49
2018-12-12T17:49:46.075Z,947.50
2018-12-12T17:50:25.032Z,947.54
2018-12-12T17:51:25.024Z,947.56
2018-12-12T17:52:25.012Z,947.52
2018-12-12T17:53:24.994Z,947.57
2018-12-12T17:54:24.984Z,947.53
2018-12-12T17:55:45.966Z,947.53
2018-12-12T17:56:24.961Z,947.48
2018-12-12T17:57:24.945Z,947.53
2018-12-12T17:58:24.930Z,947.52
2018-12-12T17:59:24.917Z,947.49
2018-12-12T18:00:24.906Z,947.52
2018-12-12T18:01:45.902Z,947.47
2018-12-12T18:02:24.878Z,947.47
2018-12-12T18:03:24.867Z,947.51
2018-12-12T18:04:24.853Z,947.52
2018-12-12T18:05:24.855Z,947.53
2018-12-12T18:06:24.830Z,947.52
2018-12-12T18:07:45.840Z,947.48
2018-12-12T18:08:24.802Z,947.49
2018-12-12T18:09:24.794Z,947.53
2018-12-12T18:10:24.780Z,947.53
2018-12-12T18:11:24.765Z,947.54
2018-12-12T18:12:24.749Z,947.49
2018-12-12T18:13:45.746Z,947.55
2018-12-12T18:14:25.676Z,947.57
2018-12-12T18:15:24.734Z,947.53
2018-12-12T18:16:24.708Z,947.51
2018-12-12T18:17:24.695Z,947.48
2018-12-12T18:18:24.684Z,947.49
2018-12-12T18:19:45.678Z,947.51
2018-12-12T18:20:24.683Z,947.46
2018-12-12T18:21:25.185Z,947.47
2018-12-12T18:22:24.630Z,947.50
2018-12-12T18:23:24.619Z,947.45
2018-12-12T18:24:24.608Z,947.48
2018-12-12T18:26:24.599Z,947.55
2018-12-12T18:27:24.578Z,947.57
2018-12-12T18:28:24.556Z,947.57
2018-12-12T18:29:24.551Z,947.56
2018-12-12T18:30:24.547Z,947.60
2018-12-12T18:32:56.604Z,947.57
2018-12-12T18:33:56.583Z,947.58
2018-12-12T18:35:50.131Z,947.55
2018-12-12T18:36:50.114Z,947.57
2018-12-12T18:37:50.108Z,947.57
2018-12-12T18:38:50.095Z,947.52
2018-12-12T18:39:50.080Z,947.51
2018-12-12T18:40:50.065Z,947.56
2018-12-12T18:41:50.054Z,947.51
2018-12-12T18:42:50.043Z,947.54
2018-12-12T18:43:50.034Z,947.53
2018-12-12T18:44:50.024Z,947.52
2018-12-12T18:45:50.003Z,947.48
2018-12-12T18:46:49.986Z,947.50
2018-12-12T18:47:49.975Z,947.54
2018-12-12T18:48:49.966Z,947.56
2018-12-12T18:49:49.954Z,947.53
2018-12-12T18:50:49.944Z,947.50
2018-12-12T18:51:49.925Z,947.51
2018-12-12T18:52:49.919Z,947.48
2018-12-12T18:53:49.904Z,947.49
2018-12-12T18:54:49.889Z,947.52